createdAt,value
2023-03-12T00:01:20.589Z,1.50
2023-03-12T00:03:48.687Z,1.53
2023-03-12T00:06:16.469Z,1.59
2023-03-12T00:08:43.159Z,1.61
2023-03-12T00:11:13.448Z,1.61
2023-03-12T00:13:40.430Z,1.59
2023-03-12T00:16:13.037Z,1.56
2023-03-12T00:18:40.328Z,1.53
2023-03-12T00:21:08.181Z,1.49
2023-03-12T00:23:35.816Z,1.50
2023-03-12T00:26:13.440Z,1.44
2023-03-12T00:28:41.179Z,1.42
2023-03-12T00:31:18.202Z,1.39
2023-03-12T00:33:45.182Z,1.36
2023-03-12T00:36:12.717Z,1.34
2023-03-12T00:38:39.397Z,1.35
2023-03-12T00:41:05.969Z,1.37
2023-03-12T00:43:32.521Z,1.34
2023-03-12T00:45:59.129Z,1.34
2023-03-12T00:48:25.907Z,1.34
2023-03-12T00:50:52.636Z,1.38
2023-03-12T00:53:19.228Z,1.39
2023-03-12T00:55:45.825Z,1.37
2023-03-12T00:58:12.408Z,1.34
2023-03-12T01:00:38.999Z,1.30
2023-03-12T01:03:05.748Z,1.27
2023-03-12T01:05:37.556Z,1.22
2023-03-12T01:08:05.402Z,1.19
2023-03-12T01:10:31.986Z,1.16
2023-03-12T01:12:58.689Z,1.18
2023-03-12T01:15:25.745Z,1.14
2023-03-12T01:17:52.595Z,1.11
2023-03-12T01:20:19.338Z,1.07
2023-03-12T01:22:45.960Z,1.08
2023-03-12T01:25:12.635Z,1.04
2023-03-12T01:27:39.253Z,1.11
2023-03-12T01:30:06.604Z,1.08
2023-03-12T01:32:33.328Z,1.07
2023-03-12T01:35:00.420Z,1.02
2023-03-12T01:37:27.704Z,1.01
2023-03-12T01:39:54.524Z,0.93
2023-03-12T01:42:21.409Z,0.92
2023-03-12T01:44:50.393Z,0.89
2023-03-12T01:47:16.977Z,0.85
2023-03-12T01:49:43.915Z,0.78
2023-03-12T01:52:37.788Z,0.70
2023-03-12T01:55:13.547Z,0.67
2023-03-12T01:57:48.562Z,0.57
2023-03-12T02:00:20.077Z,0.50
2023-03-12T02:02:47.523Z,0.48
2023-03-12T02:05:48.423Z,0.47
2023-03-12T02:08:17.168Z,0.47
2023-03-12T02:10:44.322Z,0.31
2023-03-12T02:13:12.120Z,0.20
2023-03-12T02:15:39.459Z,0.15
2023-03-12T02:18:08.536Z,0.18
2023-03-12T02:20:58.945Z,0.14
2023-03-12T02:23:45.626Z,0.16
2023-03-12T02:26:13.580Z,0.23
2023-03-12T02:28:45.787Z,0.18
2023-03-12T02:31:16.431Z,0.16
2023-03-12T02:33:43.057Z,0.12
2023-03-12T02:40:15.432Z,0.12
2023-03-12T02:42:41.951Z,0.11
2023-03-12T02:45:08.840Z,0.12
2023-03-12T02:47:35.369Z,0.11
2023-03-12T02:50:01.964Z,0.03
2023-03-12T02:52:30.556Z,-0.06
2023-03-12T02:54:57.122Z,-0.16
2023-03-12T02:57:23.687Z,-0.24
2023-03-12T02:59:50.234Z,-0.32
2023-03-12T03:02:16.828Z,-0.36
2023-03-12T03:04:43.433Z,-0.44
2023-03-12T03:07:10.064Z,-0.50
2023-03-12T03:09:36.741Z,-0.52
2023-03-12T03:12:03.528Z,-0.55
2023-03-12T03:14:30.175Z,-0.52
2023-03-12T03:16:56.788Z,-0.51
2023-03-12T03:19:23.538Z,-0.52
2023-03-12T03:21:50.148Z,-0.57
2023-03-12T03:24:16.917Z,-0.68
2023-03-12T03:26:44.169Z,-0.76
2023-03-12T03:29:10.740Z,-0.81
2023-03-12T03:31:39.701Z,-0.86
2023-03-12T03:34:06.455Z,-0.87
2023-03-12T03:36:33.089Z,-0.98
2023-03-12T03:38:59.765Z,-1.03
2023-03-12T03:41:27.948Z,-1.10
2023-03-12T03:43:58.540Z,-1.07
2023-03-12T03:46:26.185Z,-1.10
2023-03-12T03:48:53.011Z,-1.15
2023-03-12T03:51:20.076Z,-1.09
2023-03-12T03:53:46.722Z,-1.06
2023-03-12T03:56:15.884Z,-1.09
2023-03-12T03:58:43.198Z,-1.09
2023-03-12T04:01:12.213Z,-0.97
2023-03-12T04:03:39.003Z,-0.90
2023-03-12T04:06:07.343Z,-0.95
2023-03-12T04:08:35.570Z,-0.98
2023-03-12T04:11:17.691Z,-0.92
2023-03-12T04:13:45.230Z,-0.84
2023-03-12T04:16:12.092Z,-0.78
2023-03-12T04:18:40.127Z,-0.81
2023-03-12T04:21:08.362Z,-0.86
2023-03-12T04:23:36.116Z,-0.99
2023-03-12T04:26:04.428Z,-1.07
2023-03-12T04:28:31.064Z,-1.11
2023-03-12T04:30:59.877Z,-1.17
2023-03-12T04:33:28.393Z,-1.23
2023-03-12T04:35:55.103Z,-1.27
2023-03-12T04:38:23.218Z,-1.33
2023-03-12T04:41:07.463Z,-1.44
2023-03-12T04:43:34.960Z,-1.50
2023-03-12T04:46:02.586Z,-1.52
2023-03-12T04:48:29.300Z,-1.54
2023-03-12T04:50:55.897Z,-1.56
2023-03-12T04:53:23.581Z,-1.64
2023-03-12T04:55:51.135Z,-1.80
2023-03-12T04:58:18.748Z,-1.82
2023-03-12T05:00:45.796Z,-1.82
2023-03-12T05:03:12.589Z,-1.84
2023-03-12T05:05:39.325Z,-1.81
2023-03-12T05:08:06.205Z,-1.85
2023-03-12T05:10:33.422Z,-1.82
2023-03-12T05:13:00.129Z,-1.79
2023-03-12T05:15:26.780Z,-1.75
2023-03-12T05:17:54.778Z,-1.67
2023-03-12T05:20:21.518Z,-1.58
2023-03-12T05:22:48.105Z,-1.47
2023-03-12T05:25:14.763Z,-1.28
2023-03-12T05:27:41.350Z,-1.15
2023-03-12T05:30:09.796Z,-0.96
2023-03-12T05:32:36.490Z,-0.93
2023-03-12T05:35:03.485Z,-0.85
2023-03-12T05:37:31.017Z,-0.77
2023-03-12T05:39:57.659Z,-0.70
2023-03-12T05:42:25.013Z,-0.63
2023-03-12T05:44:52.387Z,-0.61
2023-03-12T05:47:19.450Z,-0.54
2023-03-12T05:49:46.120Z,-0.50
2023-03-12T05:52:12.670Z,-0.45
2023-03-12T05:54:39.393Z,-0.42
2023-03-12T05:57:06.088Z,-0.36
2023-03-12T05:59:32.849Z,-0.30
2023-03-12T06:01:59.471Z,-0.25
2023-03-12T06:04:26.071Z,-0.06
2023-03-12T06:06:52.737Z,0.02
2023-03-12T06:09:19.283Z,0.09
2023-03-12T06:11:45.865Z,0.19
2023-03-12T06:14:13.047Z,0.31
2023-03-12T06:16:39.756Z,0.43
2023-03-12T06:19:07.694Z,0.54
2023-03-12T06:21:35.923Z,0.61
2023-03-12T06:24:03.103Z,0.72
2023-03-12T06:26:29.934Z,0.90
2023-03-12T06:28:56.601Z,1.03
2023-03-12T06:31:24.198Z,1.15
2023-03-12T06:33:51.154Z,1.22
2023-03-12T06:36:18.113Z,1.30
2023-03-12T06:38:45.249Z,1.62
2023-03-12T06:41:14.603Z,1.66
2023-03-12T06:43:42.866Z,1.79
2023-03-12T06:46:13.515Z,1.99
2023-03-12T06:48:41.302Z,1.98
2023-03-12T06:51:12.780Z,2.01
2023-03-12T06:53:42.128Z,2.02
2023-03-12T06:56:09.118Z,2.03
2023-03-12T06:58:35.800Z,2.08
2023-03-12T07:01:02.411Z,2.22
2023-03-12T07:03:29.025Z,2.27
2023-03-12T07:05:56.905Z,2.31
2023-03-12T07:08:23.506Z,2.42
2023-03-12T07:10:50.085Z,2.42
2023-03-12T07:13:16.692Z,2.41
2023-03-12T07:15:45.111Z,2.40
2023-03-12T07:18:12.163Z,2.37
2023-03-12T07:20:43.910Z,2.37
2023-03-12T07:23:11.262Z,2.42
2023-03-12T07:25:40.464Z,2.49
2023-03-12T07:28:08.788Z,2.50
2023-03-12T07:30:36.008Z,2.58
2023-03-12T07:33:08.080Z,2.68
2023-03-12T07:35:35.525Z,2.77
2023-03-12T07:38:02.498Z,2.91
2023-03-12T07:40:29.510Z,2.97
2023-03-12T07:42:56.326Z,2.97
2023-03-12T07:45:23.997Z,3.05
2023-03-12T07:47:50.757Z,3.06
2023-03-12T07:50:18.648Z,3.18
2023-03-12T07:52:46.753Z,3.30
2023-03-12T07:55:13.949Z,3.41
2023-03-12T07:57:40.737Z,3.45
2023-03-12T08:00:10.338Z,3.54
2023-03-12T08:02:37.285Z,3.65
2023-03-12T08:05:04.366Z,3.77
2023-03-12T08:07:32.584Z,3.91
2023-03-12T08:10:04.857Z,4.05
2023-03-12T08:12:32.071Z,4.19
2023-03-12T08:14:58.890Z,4.30
2023-03-12T08:17:25.460Z,4.39
2023-03-12T08:19:52.045Z,4.47
2023-03-12T08:22:18.640Z,4.58
2023-03-12T08:24:45.224Z,4.70
2023-03-12T08:27:14.923Z,4.81
2023-03-12T08:29:41.924Z,4.88
2023-03-12T08:32:10.863Z,4.96
2023-03-12T08:34:37.667Z,5.06
2023-03-12T08:37:04.353Z,5.12
2023-03-12T08:39:31.031Z,5.25
2023-03-12T08:41:58.669Z,5.36
2023-03-12T08:44:26.218Z,5.47
2023-03-12T08:46:54.794Z,5.63
2023-03-12T08:49:22.120Z,5.77
2023-03-12T08:51:49.173Z,5.88
2023-03-12T08:54:15.715Z,6.00
2023-03-12T08:56:43.593Z,6.09
2023-03-12T08:59:11.757Z,6.18
2023-03-12T09:01:40.605Z,6.33
2023-03-12T09:04:08.307Z,6.44
2023-03-12T09:06:35.512Z,6.54
2023-03-12T09:09:05.794Z,6.64
2023-03-12T09:11:34.126Z,6.74
2023-03-12T09:16:47.986Z,6.84
2023-03-12T09:19:14.912Z,6.86
2023-03-12T09:21:41.922Z,6.92
2023-03-12T09:24:09.921Z,6.95
2023-03-12T09:26:36.531Z,7.10
2023-03-12T09:29:03.215Z,7.22
2023-03-12T09:31:29.798Z,7.30
2023-03-12T09:33:56.386Z,7.37
2023-03-12T09:36:22.971Z,7.45
2023-03-12T09:38:49.592Z,7.62
2023-03-12T09:41:20.615Z,7.76
2023-03-12T09:44:02.390Z,7.90
2023-03-12T09:46:38.007Z,8.04
2023-03-12T09:49:11.931Z,8.24
2023-03-12T09:51:44.464Z,8.42
2023-03-12T09:54:29.782Z,8.59
2023-03-12T09:57:00.615Z,8.66
2023-03-12T09:59:27.468Z,8.80
2023-03-12T10:02:00.199Z,8.98
2023-03-12T10:04:58.226Z,9.19
2023-03-12T10:07:36.050Z,9.23
2023-03-12T10:10:20.761Z,9.39
2023-03-12T10:12:54.528Z,9.57
2023-03-12T10:15:54.860Z,9.76
2023-03-12T10:18:42.876Z,9.96
2023-03-12T10:21:29.487Z,10.09
2023-03-12T10:24:08.450Z,10.20
2023-03-12T10:26:38.096Z,10.37
2023-03-12T10:29:17.347Z,10.27
2023-03-12T10:32:04.584Z,10.30
2023-03-12T10:34:51.526Z,10.24
2023-03-12T10:37:23.640Z,10.04
2023-03-12T10:39:51.423Z,9.78
2023-03-12T10:42:21.413Z,9.69
2023-03-12T10:44:55.048Z,9.73
2023-03-12T10:47:33.968Z,9.88
2023-03-12T10:50:22.253Z,9.99
2023-03-12T10:52:52.053Z,9.98
2023-03-12T10:55:21.384Z,10.37
2023-03-12T10:57:48.808Z,10.80
2023-03-12T11:00:34.053Z,11.01
2023-03-12T11:03:06.696Z,10.90
2023-03-12T11:05:48.885Z,10.67
2023-03-12T11:08:33.591Z,10.45
2023-03-12T11:11:01.693Z,10.96
2023-03-12T11:13:37.991Z,11.64
2023-03-12T11:16:16.825Z,12.41
2023-03-12T11:19:04.461Z,12.96
2023-03-12T11:21:33.531Z,13.39
2023-03-12T11:24:10.882Z,13.27
2023-03-12T11:27:01.910Z,13.20
2023-03-12T11:29:40.383Z,13.74
2023-03-12T11:32:17.951Z,14.48
2023-03-12T11:34:49.754Z,15.08
2023-03-12T11:37:40.277Z,15.90
2023-03-12T11:40:18.885Z,16.42
2023-03-12T11:42:56.331Z,17.07
2023-03-12T11:45:28.900Z,17.15
2023-03-12T11:48:02.094Z,17.76
2023-03-12T11:50:56.804Z,18.41
2023-03-12T11:53:30.190Z,18.79
2023-03-12T11:56:23.993Z,19.73
2023-03-12T11:59:05.399Z,19.75
2023-03-12T12:02:09.776Z,20.53
2023-03-12T12:04:53.092Z,21.25
2023-03-12T12:07:19.673Z,22.04
2023-03-12T12:09:48.971Z,22.64
2023-03-12T12:12:27.506Z,23.32
2023-03-12T12:15:20.769Z,23.69
2023-03-12T12:17:59.261Z,23.89
2023-03-12T12:20:51.703Z,23.70
2023-03-12T12:23:38.005Z,24.48
2023-03-12T12:26:09.044Z,24.24
2023-03-12T12:28:38.687Z,23.68
2023-03-12T12:31:38.601Z,24.07
2023-03-12T12:34:21.399Z,24.65
2023-03-12T12:36:57.217Z,24.93
2023-03-12T12:39:32.541Z,24.92
2023-03-12T12:42:04.706Z,24.33
2023-03-12T12:44:38.928Z,24.97
2023-03-12T12:47:13.191Z,25.03
2023-03-12T12:49:54.258Z,24.12
2023-03-12T12:52:22.549Z,23.86
2023-03-12T12:55:34.748Z,23.92
2023-03-12T12:58:19.401Z,23.98
2023-03-12T13:00:50.012Z,23.55
2023-03-12T13:03:22.608Z,23.35
2023-03-12T13:06:07.589Z,23.20
2023-03-12T13:09:01.140Z,23.29
2023-03-12T13:11:38.557Z,23.18
2023-03-12T13:14:05.051Z,23.76
2023-03-12T13:16:37.175Z,24.68
2023-03-12T13:19:24.073Z,24.57
2023-03-12T13:22:18.304Z,23.14
2023-03-12T13:24:57.460Z,22.43
2023-03-12T13:27:28.981Z,22.05
2023-03-12T13:29:57.266Z,21.37
2023-03-12T13:32:36.134Z,21.38
2023-03-12T13:35:14.640Z,22.02
2023-03-12T13:37:47.189Z,22.26
2023-03-12T13:40:28.692Z,22.52
2023-03-12T13:43:39.742Z,22.21
2023-03-12T13:46:16.742Z,22.53
2023-03-12T13:48:48.437Z,21.92
2023-03-12T13:51:23.140Z,22.67
2023-03-12T13:53:55.454Z,22.84
2023-03-12T13:56:28.328Z,23.36
2023-03-12T13:58:57.642Z,23.09
2023-03-12T14:01:30.073Z,23.44
2023-03-12T14:04:01.066Z,24.05
2023-03-12T14:06:31.766Z,24.29
2023-03-12T14:09:28.342Z,23.69
2023-03-12T14:12:24.001Z,22.90
2023-03-12T14:15:18.683Z,22.69
2023-03-12T14:17:45.618Z,22.21
2023-03-12T14:20:18.296Z,21.99
2023-03-12T14:23:07.848Z,21.59
2023-03-12T14:25:39.221Z,21.50
2023-03-12T14:28:14.250Z,21.83
2023-03-12T14:31:12.806Z,21.33
2023-03-12T14:33:52.626Z,21.77
2023-03-12T14:36:22.876Z,22.15
2023-03-12T14:38:49.673Z,22.06
2023-03-12T14:41:19.624Z,21.58
2023-03-12T14:43:46.571Z,21.24
2023-03-12T14:46:19.200Z,21.52
2023-03-12T14:48:49.324Z,20.28
2023-03-12T14:51:25.033Z,19.01
2023-03-12T14:53:53.200Z,18.34
2023-03-12T14:56:30.441Z,17.22
2023-03-12T14:58:59.047Z,16.90
2023-03-12T15:01:31.897Z,17.28
2023-03-12T15:04:01.607Z,17.42
2023-03-12T15:06:31.670Z,17.90
2023-03-12T15:09:03.874Z,18.12
2023-03-12T15:11:33.278Z,17.95
2023-03-12T15:14:09.440Z,17.21
2023-03-12T15:16:36.901Z,16.75
2023-03-12T15:19:04.517Z,16.48
2023-03-12T15:21:37.416Z,15.77
2023-03-12T15:24:05.691Z,15.57
2023-03-12T15:26:36.458Z,14.82
2023-03-12T15:29:05.522Z,14.73
2023-03-12T15:31:48.021Z,14.80
2023-03-12T15:34:34.166Z,14.88
2023-03-12T15:37:02.918Z,15.01
2023-03-12T15:39:35.328Z,15.16
2023-03-12T15:42:15.601Z,15.26
2023-03-12T15:44:52.070Z,15.13
2023-03-12T15:47:21.860Z,15.09
2023-03-12T15:49:56.310Z,14.72
2023-03-12T15:52:22.885Z,14.16
2023-03-12T15:55:22.371Z,13.33
2023-03-12T15:57:50.543Z,12.72
2023-03-12T16:00:43.976Z,12.24
2023-03-12T16:03:18.878Z,11.81
2023-03-12T16:05:45.684Z,11.40
2023-03-12T16:08:22.724Z,11.20
2023-03-12T16:10:50.387Z,10.88
2023-03-12T16:13:23.390Z,10.66
2023-03-12T16:15:50.082Z,10.47
2023-03-12T16:18:21.783Z,10.28
2023-03-12T16:20:50.478Z,10.21
2023-03-12T16:23:18.941Z,9.99
2023-03-12T16:25:48.525Z,9.75
2023-03-12T16:28:17.712Z,9.63
2023-03-12T16:30:44.608Z,9.61
2023-03-12T16:33:16.722Z,9.71
2023-03-12T16:35:43.981Z,9.57
2023-03-12T16:38:10.698Z,9.35
2023-03-12T16:40:40.605Z,9.15
2023-03-12T16:43:15.648Z,8.82
2023-03-12T16:45:44.749Z,8.64
2023-03-12T16:48:15.447Z,8.35
2023-03-12T16:50:47.907Z,8.26
2023-03-12T16:53:14.688Z,8.09
2023-03-12T16:55:50.740Z,7.95
2023-03-12T16:58:19.954Z,7.83
2023-03-12T17:00:47.600Z,7.72
2023-03-12T17:03:26.369Z,7.66
2023-03-12T17:05:54.154Z,7.47
2023-03-12T17:08:20.838Z,7.30
2023-03-12T17:10:47.472Z,7.06
2023-03-12T17:13:23.027Z,6.77
2023-03-12T17:15:50.524Z,6.74
2023-03-12T17:18:18.183Z,6.77
2023-03-12T17:20:46.307Z,6.80
2023-03-12T17:23:13.311Z,6.56
2023-03-12T17:25:42.361Z,6.47
2023-03-12T17:28:09.182Z,6.38
2023-03-12T17:30:36.723Z,6.29
2023-03-12T17:33:06.631Z,6.16
2023-03-12T17:35:33.750Z,5.95
2023-03-12T17:38:00.697Z,5.75
2023-03-12T17:40:27.581Z,5.70
2023-03-12T17:42:54.277Z,5.71
2023-03-12T17:45:21.732Z,5.64
2023-03-12T17:47:48.455Z,5.49
2023-03-12T17:50:15.381Z,5.44
2023-03-12T17:52:42.023Z,5.34
2023-03-12T17:55:11.354Z,5.15
2023-03-12T17:57:38.548Z,4.92
2023-03-12T18:00:11.579Z,4.55
2023-03-12T18:02:42.038Z,4.51
2023-03-12T18:05:10.559Z,4.48
2023-03-12T18:07:37.841Z,4.39
2023-03-12T18:10:08.717Z,4.06
2023-03-12T18:12:37.999Z,4.05
2023-03-12T18:15:05.953Z,3.99
2023-03-12T18:17:32.566Z,3.83
2023-03-12T18:19:59.234Z,3.66
2023-03-12T18:22:25.807Z,3.47
2023-03-12T18:24:52.392Z,3.36
2023-03-12T18:27:18.929Z,3.38
2023-03-12T18:29:45.628Z,3.26
2023-03-12T18:32:12.201Z,3.01
2023-03-12T18:34:42.140Z,2.89
2023-03-12T18:37:08.722Z,2.87
2023-03-12T18:39:35.349Z,2.74
2023-03-12T18:42:01.934Z,2.69
2023-03-12T18:44:28.631Z,2.53
2023-03-12T18:46:55.254Z,2.41
2023-03-12T18:49:21.921Z,2.28
2023-03-12T18:51:53.341Z,2.18
2023-03-12T18:54:19.928Z,2.03
2023-03-12T18:56:46.761Z,1.94
2023-03-12T18:59:14.862Z,1.90
2023-03-12T19:01:44.603Z,1.94
2023-03-12T19:04:16.367Z,1.97
2023-03-12T19:06:50.694Z,1.99
2023-03-12T19:09:18.569Z,1.97
2023-03-12T19:11:49.400Z,1.96
2023-03-12T19:14:16.232Z,2.00
2023-03-12T19:16:43.097Z,2.03
2023-03-12T19:19:09.700Z,1.91
2023-03-12T19:21:36.276Z,1.91
2023-03-12T19:24:02.815Z,1.90
2023-03-12T19:26:29.508Z,1.85
2023-03-12T19:28:56.128Z,1.81
2023-03-12T19:31:22.875Z,1.61
2023-03-12T19:33:49.462Z,1.62
2023-03-12T19:36:16.165Z,1.50
2023-03-12T19:38:42.764Z,1.40
2023-03-12T19:41:11.161Z,1.29
2023-03-12T19:43:38.100Z,1.24
2023-03-12T19:46:05.064Z,1.22
2023-03-12T19:48:32.051Z,1.10
2023-03-12T19:51:05.399Z,0.98
2023-03-12T19:53:32.165Z,0.95
2023-03-12T19:55:58.764Z,0.87
2023-03-12T19:58:25.374Z,0.79
2023-03-12T20:00:51.973Z,0.82
2023-03-12T20:03:20.698Z,0.86
2023-03-12T20:05:47.506Z,0.88
2023-03-12T20:08:14.168Z,0.92
2023-03-12T20:10:40.825Z,0.89
2023-03-12T20:13:12.750Z,0.90
2023-03-12T20:15:40.345Z,0.90
2023-03-12T20:18:06.955Z,0.93
2023-03-12T20:20:33.836Z,0.89
2023-03-12T20:23:00.402Z,0.78
2023-03-12T20:25:27.051Z,0.66
2023-03-12T20:27:53.667Z,0.66
2023-03-12T20:30:20.330Z,0.69
2023-03-12T20:32:46.986Z,0.74
2023-03-12T20:35:13.590Z,0.72
2023-03-12T20:37:40.224Z,0.63
2023-03-12T20:40:08.541Z,0.46
2023-03-12T20:42:35.108Z,0.29
2023-03-12T20:45:01.717Z,0.11
2023-03-12T20:47:28.276Z,0.12
2023-03-12T20:49:54.834Z,0.16
2023-03-12T20:52:21.400Z,0.19
2023-03-12T20:54:47.943Z,0.16
2023-03-12T20:57:14.585Z,0.22
2023-03-12T20:59:41.173Z,0.25
2023-03-12T21:02:07.814Z,0.30
2023-03-12T21:04:34.405Z,0.20
2023-03-12T21:07:00.934Z,0.04
2023-03-12T21:09:27.503Z,-0.09
2023-03-12T21:11:54.023Z,-0.18
2023-03-12T21:14:20.596Z,-0.19
2023-03-12T21:16:47.209Z,-0.15
2023-03-12T21:19:13.955Z,-0.11
2023-03-12T21:21:40.804Z,-0.08
2023-03-12T21:24:07.756Z,-0.04
2023-03-12T21:26:34.348Z,-0.04
2023-03-12T21:29:00.909Z,0.01
2023-03-12T21:31:27.542Z,0.10
2023-03-12T21:33:58.189Z,0.23
2023-03-12T21:36:26.079Z,0.34
2023-03-12T21:38:52.825Z,0.44
2023-03-12T21:41:20.745Z,0.56
2023-03-12T21:43:47.361Z,0.67
2023-03-12T21:46:19.836Z,0.74
2023-03-12T21:48:48.032Z,0.79
2023-03-12T21:51:17.022Z,0.85
2023-03-12T21:53:43.667Z,0.89
2023-03-12T21:56:11.059Z,0.90
2023-03-12T21:58:37.697Z,0.90
2023-03-12T22:01:11.680Z,0.92
2023-03-12T22:03:39.494Z,0.88
2023-03-12T22:06:06.783Z,0.82
2023-03-12T22:08:34.561Z,0.81
2023-03-12T22:11:03.537Z,0.84
2023-03-12T22:13:30.157Z,0.87
2023-03-12T22:15:59.527Z,0.88
2023-03-12T22:18:27.296Z,0.89
2023-03-12T22:20:56.240Z,0.93
2023-03-12T22:23:23.389Z,0.97
2023-03-12T22:25:50.253Z,0.97
2023-03-12T22:28:17.523Z,1.05
2023-03-12T22:30:44.431Z,1.13
2023-03-12T22:33:11.309Z,1.18
2023-03-12T22:35:45.426Z,1.18
2023-03-12T22:38:12.650Z,1.22
2023-03-12T22:40:39.820Z,1.28
2023-03-12T22:43:06.513Z,1.29
2023-03-12T22:45:33.472Z,1.27
2023-03-12T22:48:00.320Z,1.28
2023-03-12T22:50:27.149Z,1.31
2023-03-12T22:52:53.910Z,1.36
2023-03-12T22:55:20.452Z,1.42
2023-03-12T22:57:47.091Z,1.45
2023-03-12T23:00:16.595Z,1.45
2023-03-12T23:02:43.205Z,1.34
2023-03-12T23:05:10.072Z,1.37
2023-03-12T23:07:37.150Z,1.46
2023-03-12T23:10:04.585Z,1.59
2023-03-12T23:12:31.728Z,1.84
2023-03-12T23:14:58.355Z,2.06
2023-03-12T23:17:25.136Z,2.37
2023-03-12T23:19:51.769Z,2.53
2023-03-12T23:22:18.348Z,2.67
2023-03-12T23:24:44.905Z,2.87
2023-03-12T23:27:11.643Z,3.09
2023-03-12T23:29:38.252Z,3.20
2023-03-12T23:32:05.395Z,3.33
2023-03-12T23:34:34.398Z,3.39
2023-03-12T23:37:01.127Z,3.52
2023-03-12T23:39:30.366Z,3.61
2023-03-12T23:41:57.791Z,3.68
2023-03-12T23:44:24.963Z,3.74
2023-03-12T23:46:51.572Z,3.75
2023-03-12T23:49:20.518Z,3.79
2023-03-12T23:51:47.430Z,3.80
2023-03-12T23:54:15.374Z,3.81
2023-03-12T23:56:41.975Z,3.84
2023-03-12T23:59:10.270Z,3.86
